sensor_id;sensor_type;location;lat;lon;timestamp;temperature;humidity
10247;DHT22;5168;47.854;7.944;2023-02-20T00:00:08;1.50;99.90
10247;DHT22;5168;47.854;7.944;2023-02-20T00:02:34;0.90;99.90
10247;DHT22;5168;47.854;7.944;2023-02-20T00:05:00;1.50;99.90
10247;DHT22;5168;47.854;7.944;2023-02-20T00:12:17;1.30;99.90
10247;DHT22;5168;47.854;7.944;2023-02-20T00:14:43;1.50;99.90
10247;DHT22;5168;47.854;7.944;2023-02-20T00:17:08;1.40;99.90
10247;DHT22;5168;47.854;7.944;2023-02-20T00:24:26;1.30;99.90
10247;DHT22;5168;47.854;7.944;2023-02-20T00:26:52;1.60;99.90
10247;DHT22;5168;47.854;7.944;2023-02-20T00:29:20;1.50;99.90
10247;DHT22;5168;47.854;7.944;2023-02-20T00:31:53;1.80;99.90
10247;DHT22;5168;47.854;7.944;2023-02-20T00:34:21;1.30;99.90
10247;DHT22;5168;47.854;7.944;2023-02-20T00:36:47;2.40;99.90
10247;DHT22;5168;47.854;7.944;2023-02-20T00:41:38;1.40;99.90
10247;DHT22;5168;47.854;7.944;2023-02-20T00:44:04;1.70;99.90
10247;DHT22;5168;47.854;7.944;2023-02-20T00:46:30;1.50;99.90
10247;DHT22;5168;47.854;7.944;2023-02-20T00:53:47;1.50;99.90
10247;DHT22;5168;47.854;7.944;2023-02-20T00:56:13;1.80;99.90
10247;DHT22;5168;47.854;7.944;2023-02-20T00:58:39;1.60;99.90
10247;DHT22;5168;47.854;7.944;2023-02-20T01:01:04;1.70;99.90
10247;DHT22;5168;47.854;7.944;2023-02-20T01:05:56;1.90;99.90
10247;DHT22;5168;47.854;7.944;2023-02-20T01:08:21;2.00;99.90
10247;DHT22;5168;47.854;7.944;2023-02-20T01:10:47;1.70;99.90
10247;DHT22;5168;47.854;7.944;2023-02-20T01:18:04;1.90;99.90
10247;DHT22;5168;47.854;7.944;2023-02-20T01:20:30;1.50;99.90
10247;DHT22;5168;47.854;7.944;2023-02-20T01:22:56;1.70;99.90
10247;DHT22;5168;47.854;7.944;2023-02-20T01:25:22;2.40;99.90
10247;DHT22;5168;47.854;7.944;2023-02-20T01:32:40;2.10;99.90
10247;DHT22;5168;47.854;7.944;2023-02-20T01:42:27;1.90;99.90
10247;DHT22;5168;47.854;7.944;2023-02-20T01:44:53;1.90;99.90
10247;DHT22;5168;47.854;7.944;2023-02-20T01:47:21;1.90;99.90
10247;DHT22;5168;47.854;7.944;2023-02-20T01:49:54;1.70;99.90
10247;DHT22;5168;47.854;7.944;2023-02-20T01:52:27;1.80;99.90
10247;DHT22;5168;47.854;7.944;2023-02-20T01:54:58;1.60;99.90
10247;DHT22;5168;47.854;7.944;2023-02-20T01:57:27;1.70;99.90
10247;DHT22;5168;47.854;7.944;2023-02-20T01:59:58;1.90;99.90
10247;DHT22;5168;47.854;7.944;2023-02-20T02:02:27;1.90;99.90
10247;DHT22;5168;47.854;7.944;2023-02-20T02:04:55;1.70;99.90
10247;DHT22;5168;47.854;7.944;2023-02-20T02:07:20;1.50;99.90
10247;DHT22;5168;47.854;7.944;2023-02-20T02:10:02;1.30;99.90
10247;DHT22;5168;47.854;7.944;2023-02-20T02:12:28;1.30;99.90
10247;DHT22;5168;47.854;7.944;2023-02-20T02:14:54;1.30;99.90
10247;DHT22;5168;47.854;7.944;2023-02-20T02:20:41;1.20;99.90
10247;DHT22;5168;47.854;7.944;2023-02-20T02:23:26;1.30;99.90
10247;DHT22;5168;47.854;7.944;2023-02-20T02:26:34;1.10;99.90
10247;DHT22;5168;47.854;7.944;2023-02-20T02:29:28;1.90;99.90
10247;DHT22;5168;47.854;7.944;2023-02-20T02:35:38;1.20;99.90
10247;DHT22;5168;47.854;7.944;2023-02-20T02:38:25;1.40;99.90
10247;DHT22;5168;47.854;7.944;2023-02-20T02:41:33;1.10;99.90
10247;DHT22;5168;47.854;7.944;2023-02-20T02:46:39;1.40;99.90
10247;DHT22;5168;47.854;7.944;2023-02-20T02:51:38;1.20;99.90
10247;DHT22;5168;47.854;7.944;2023-02-20T02:54:18;1.40;99.90
10247;DHT22;5168;47.854;7.944;2023-02-20T02:56:50;1.20;99.90
10247;DHT22;5168;47.854;7.944;2023-02-20T02:59:21;1.10;99.90
10247;DHT22;5168;47.854;7.944;2023-02-20T03:01:58;1.20;99.90
10247;DHT22;5168;47.854;7.944;2023-02-20T03:04:26;1.10;99.90
10247;DHT22;5168;47.854;7.944;2023-02-20T03:06:58;1.10;99.90
10247;DHT22;5168;47.854;7.944;2023-02-20T03:09:49;1.10;99.90
10247;DHT22;5168;47.854;7.944;2023-02-20T03:12:17;0.90;99.90
10247;DHT22;5168;47.854;7.944;2023-02-20T03:14:58;1.10;99.90
10247;DHT22;5168;47.854;7.944;2023-02-20T03:17:51;1.70;99.90
10247;DHT22;5168;47.854;7.944;2023-02-20T03:20:21;0.80;99.90
10247;DHT22;5168;47.854;7.944;2023-02-20T03:22:54;0.90;99.90
10247;DHT22;5168;47.854;7.944;2023-02-20T03:25:49;0.80;99.90
10247;DHT22;5168;47.854;7.944;2023-02-20T03:28:34;0.90;99.90
10247;DHT22;5168;47.854;7.944;2023-02-20T03:31:06;0.90;99.90
10247;DHT22;5168;47.854;7.944;2023-02-20T03:33:36;0.50;99.90
10247;DHT22;5168;47.854;7.944;2023-02-20T03:36:34;0.70;99.90
10247;DHT22;5168;47.854;7.944;2023-02-20T03:39:24;0.30;99.90
10247;DHT22;5168;47.854;7.944;2023-02-20T03:42:11;0.70;99.90
10247;DHT22;5168;47.854;7.944;2023-02-20T03:47:24;0.70;99.90
10247;DHT22;5168;47.854;7.944;2023-02-20T03:49:52;0.80;99.90
10247;DHT22;5168;47.854;7.944;2023-02-20T03:52:20;0.90;99.90
10247;DHT22;5168;47.854;7.944;2023-02-20T03:54:46;0.80;99.90
10247;DHT22;5168;47.854;7.944;2023-02-20T03:57:12;1.10;99.90
10247;DHT22;5168;47.854;7.944;2023-02-20T03:59:50;0.80;99.90
10247;DHT22;5168;47.854;7.944;2023-02-20T04:02:41;0.90;99.90
10247;DHT22;5168;47.854;7.944;2023-02-20T04:05:15;0.90;99.90
10247;DHT22;5168;47.854;7.944;2023-02-20T04:08:29;0.80;99.90
10247;DHT22;5168;47.854;7.944;2023-02-20T04:10:39;1.00;99.90
10247;DHT22;5168;47.854;7.944;2023-02-20T04:13:07;0.90;99.90
10247;DHT22;5168;47.854;7.944;2023-02-20T04:15:33;1.10;99.90
10247;DHT22;5168;47.854;7.944;2023-02-20T04:18:04;0.90;99.90
10247;DHT22;5168;47.854;7.944;2023-02-20T04:20:30;0.80;99.90
10247;DHT22;5168;47.854;7.944;2023-02-20T04:22:59;0.80;99.90
10247;DHT22;5168;47.854;7.944;2023-02-20T04:25:41;1.30;99.90
10247;DHT22;5168;47.854;7.944;2023-02-20T04:28:07;1.10;99.90
10247;DHT22;5168;47.854;7.944;2023-02-20T04:30:33;0.80;99.90
10247;DHT22;5168;47.854;7.944;2023-02-20T04:32:59;0.70;99.90
10247;DHT22;5168;47.854;7.944;2023-02-20T04:35:24;0.80;99.90
10247;DHT22;5168;47.854;7.944;2023-02-20T04:37:50;0.90;99.90
10247;DHT22;5168;47.854;7.944;2023-02-20T04:40:20;0.80;99.90
10247;DHT22;5168;47.854;7.944;2023-02-20T04:45:11;0.30;99.90
10247;DHT22;5168;47.854;7.944;2023-02-20T04:59:47;0.80;99.90
10247;DHT22;5168;47.854;7.944;2023-02-20T05:07:05;0.80;99.90
10247;DHT22;5168;47.854;7.944;2023-02-20T05:09:31;0.80;99.90
10247;DHT22;5168;47.854;7.944;2023-02-20T05:11:57;0.70;99.90
10247;DHT22;5168;47.854;7.944;2023-02-20T05:14:22;0.60;99.90
10247;DHT22;5168;47.854;7.944;2023-02-20T05:19:16;0.90;99.90
10247;DHT22;5168;47.854;7.944;2023-02-20T05:21:45;0.90;99.90
10247;DHT22;5168;47.854;7.944;2023-02-20T05:24:29;0.70;99.90
10247;DHT22;5168;47.854;7.944;2023-02-20T05:26:56;0.90;99.90
10247;DHT22;5168;47.854;7.944;2023-02-20T05:29:22;0.60;99.90
10247;DHT22;5168;47.854;7.944;2023-02-20T05:31:48;0.80;99.90
10247;DHT22;5168;47.854;7.944;2023-02-20T05:34:13;0.70;99.90
10247;DHT22;5168;47.854;7.944;2023-02-20T05:43:57;0.80;99.90
10247;DHT22;5168;47.854;7.944;2023-02-20T05:46:25;0.60;99.90
10247;DHT22;5168;47.854;7.944;2023-02-20T05:48:51;0.70;99.90
10247;DHT22;5168;47.854;7.944;2023-02-20T05:51:25;0.60;99.90
10247;DHT22;5168;47.854;7.944;2023-02-20T05:56:17;0.60;99.90
10247;DHT22;5168;47.854;7.944;2023-02-20T05:58:43;0.70;99.90
10247;DHT22;5168;47.854;7.944;2023-02-20T06:01:22;0.50;99.90
10247;DHT22;5168;47.854;7.944;2023-02-20T06:11:09;0.70;99.90
10247;DHT22;5168;47.854;7.944;2023-02-20T06:16:00;0.70;99.90
10247;DHT22;5168;47.854;7.944;2023-02-20T06:18:26;0.50;99.90
10247;DHT22;5168;47.854;7.944;2023-02-20T06:33:01;0.90;99.90
10247;DHT22;5168;47.854;7.944;2023-02-20T06:35:27;0.80;99.90
10247;DHT22;5168;47.854;7.944;2023-02-20T06:37:52;0.70;99.90
10247;DHT22;5168;47.854;7.944;2023-02-20T06:42:44;0.90;99.90
10247;DHT22;5168;47.854;7.944;2023-02-20T06:45:09;1.00;99.90
10247;DHT22;5168;47.854;7.944;2023-02-20T06:47:35;0.80;99.90
10247;DHT22;5168;47.854;7.944;2023-02-20T06:50:03;0.50;99.90
10247;DHT22;5168;47.854;7.944;2023-02-20T06:57:21;0.90;99.90
10247;DHT22;5168;47.854;7.944;2023-02-20T06:59:46;1.10;99.90
10247;DHT22;5168;47.854;7.944;2023-02-20T07:02:15;1.00;99.90
10247;DHT22;5168;47.854;7.944;2023-02-20T07:04:40;1.00;99.90
10247;DHT22;5168;47.854;7.944;2023-02-20T07:09:32;1.30;99.90
10247;DHT22;5168;47.854;7.944;2023-02-20T07:14:24;1.50;99.90
10247;DHT22;5168;47.854;7.944;2023-02-20T07:16:49;1.60;99.90
10247;DHT22;5168;47.854;7.944;2023-02-20T07:19:15;1.90;99.90
10247;DHT22;5168;47.854;7.944;2023-02-20T07:21:41;2.80;99.90
10247;DHT22;5168;47.854;7.944;2023-02-20T07:24:07;2.20;99.90
10247;DHT22;5168;47.854;7.944;2023-02-20T07:26:32;2.40;99.90
10247;DHT22;5168;47.854;7.944;2023-02-20T07:28:59;3.20;99.90
10247;DHT22;5168;47.854;7.944;2023-02-20T07:31:26;2.90;99.90
10247;DHT22;5168;47.854;7.944;2023-02-20T07:33:51;2.90;99.90
10247;DHT22;5168;47.854;7.944;2023-02-20T07:38:55;3.30;99.90
10247;DHT22;5168;47.854;7.944;2023-02-20T07:41:22;3.80;99.90
10247;DHT22;5168;47.854;7.944;2023-02-20T07:43:47;4.10;99.90
10247;DHT22;5168;47.854;7.944;2023-02-20T07:48:39;4.60;99.90
10247;DHT22;5168;47.854;7.944;2023-02-20T07:51:04;4.20;99.90
10247;DHT22;5168;47.854;7.944;2023-02-20T07:55:56;4.50;99.90
10247;DHT22;5168;47.854;7.944;2023-02-20T07:58:21;4.70;99.90
10247;DHT22;5168;47.854;7.944;2023-02-20T08:00:48;4.90;99.90
10247;DHT22;5168;47.854;7.944;2023-02-20T08:03:16;4.90;99.90
10247;DHT22;5168;47.854;7.944;2023-02-20T08:05:41;5.00;99.90
10247;DHT22;5168;47.854;7.944;2023-02-20T08:08:07;5.30;99.90
10247;DHT22;5168;47.854;7.944;2023-02-20T08:20:20;5.50;99.90
10247;DHT22;5168;47.854;7.944;2023-02-20T08:22:46;5.70;99.90
10247;DHT22;5168;47.854;7.944;2023-02-20T08:25:13;5.50;99.90
10247;DHT22;5168;47.854;7.944;2023-02-20T08:27:44;5.70;99.90
10247;DHT22;5168;47.854;7.944;2023-02-20T08:30:22;5.70;99.90
10247;DHT22;5168;47.854;7.944;2023-02-20T08:32:53;5.90;99.90
10247;DHT22;5168;47.854;7.944;2023-02-20T08:35:19;6.40;99.90
10247;DHT22;5168;47.854;7.944;2023-02-20T08:37:45;5.90;99.90
10247;DHT22;5168;47.854;7.944;2023-02-20T08:40:11;6.30;99.90
10247;DHT22;5168;47.854;7.944;2023-02-20T08:42:37;6.60;99.90
10247;DHT22;5168;47.854;7.944;2023-02-20T08:45:03;6.90;99.90
10247;DHT22;5168;47.854;7.944;2023-02-20T08:47:29;6.70;99.90
10247;DHT22;5168;47.854;7.944;2023-02-20T08:49:55;7.40;99.90
10247;DHT22;5168;47.854;7.944;2023-02-20T08:52:20;7.80;99.90
10247;DHT22;5168;47.854;7.944;2023-02-20T08:54:46;7.80;99.90
10247;DHT22;5168;47.854;7.944;2023-02-20T09:11:48;10.20;99.90
10247;DHT22;5168;47.854;7.944;2023-02-20T09:14:14;10.40;99.90
10247;DHT22;5168;47.854;7.944;2023-02-20T09:16:40;11.20;99.90
10247;DHT22;5168;47.854;7.944;2023-02-20T09:19:10;11.30;99.90
10247;DHT22;5168;47.854;7.944;2023-02-20T09:24:05;11.70;99.90
10247;DHT22;5168;47.854;7.944;2023-02-20T09:26:30;12.10;99.90
10247;DHT22;5168;47.854;7.944;2023-02-20T09:33:48;13.20;99.90
10247;DHT22;5168;47.854;7.944;2023-02-20T09:36:13;13.50;99.90
10247;DHT22;5168;47.854;7.944;2023-02-20T09:38:39;13.40;99.90
10247;DHT22;5168;47.854;7.944;2023-02-20T09:41:05;13.70;99.90
10247;DHT22;5168;47.854;7.944;2023-02-20T09:44:11;14.00;99.90
10247;DHT22;5168;47.854;7.944;2023-02-20T09:46:29;14.40;99.90
10247;DHT22;5168;47.854;7.944;2023-02-20T09:49:13;14.60;99.90
10247;DHT22;5168;47.854;7.944;2023-02-20T09:51:48;15.30;99.90
10247;DHT22;5168;47.854;7.944;2023-02-20T09:54:31;15.40;99.90
10247;DHT22;5168;47.854;7.944;2023-02-20T09:57:02;15.10;99.90
10247;DHT22;5168;47.854;7.944;2023-02-20T09:59:37;15.60;99.80
10247;DHT22;5168;47.854;7.944;2023-02-20T10:02:30;15.90;98.10
10247;DHT22;5168;47.854;7.944;2023-02-20T10:05:01;16.10;95.80
10247;DHT22;5168;47.854;7.944;2023-02-20T10:07:37;16.40;96.50
10247;DHT22;5168;47.854;7.944;2023-02-20T10:13:04;17.10;94.10
10247;DHT22;5168;47.854;7.944;2023-02-20T10:15:58;16.90;91.70
10247;DHT22;5168;47.854;7.944;2023-02-20T10:23:52;18.00;91.40
10247;DHT22;5168;47.854;7.944;2023-02-20T10:26:26;18.00;89.70
10247;DHT22;5168;47.854;7.944;2023-02-20T10:28:55;17.90;86.30
10247;DHT22;5168;47.854;7.944;2023-02-20T10:31:40;17.50;84.30
10247;DHT22;5168;47.854;7.944;2023-02-20T10:34:19;17.90;89.10
10247;DHT22;5168;47.854;7.944;2023-02-20T10:36:50;18.10;82.90
10247;DHT22;5168;47.854;7.944;2023-02-20T10:39:19;18.50;85.00
10247;DHT22;5168;47.854;7.944;2023-02-20T10:41:54;18.70;85.20
10247;DHT22;5168;47.854;7.944;2023-02-20T10:44:50;18.50;81.30
10247;DHT22;5168;47.854;7.944;2023-02-20T10:47:47;18.20;79.20
10247;DHT22;5168;47.854;7.944;2023-02-20T10:53:27;18.20;78.00
10247;DHT22;5168;47.854;7.944;2023-02-20T11:01:21;17.80;72.90
10247;DHT22;5168;47.854;7.944;2023-02-20T11:03:58;18.30;77.10
10247;DHT22;5168;47.854;7.944;2023-02-20T11:06:31;18.60;72.20
10247;DHT22;5168;47.854;7.944;2023-02-20T11:08:58;18.90;75.30
10247;DHT22;5168;47.854;7.944;2023-02-20T11:12:01;18.90;70.00
10247;DHT22;5168;47.854;7.944;2023-02-20T11:14:23;19.10;69.00
10247;DHT22;5168;47.854;7.944;2023-02-20T11:16:55;19.40;70.40
10247;DHT22;5168;47.854;7.944;2023-02-20T11:19:29;19.20;70.70
10247;DHT22;5168;47.854;7.944;2023-02-20T11:21:56;19.20;69.90
10247;DHT22;5168;47.854;7.944;2023-02-20T11:27:05;19.90;69.40
10247;DHT22;5168;47.854;7.944;2023-02-20T11:29:34;20.30;66.50
10247;DHT22;5168;47.854;7.944;2023-02-20T11:32:21;19.90;65.90
10247;DHT22;5168;47.854;7.944;2023-02-20T11:34:49;20.80;68.50
10247;DHT22;5168;47.854;7.944;2023-02-20T11:37:26;21.00;66.40
10247;DHT22;5168;47.854;7.944;2023-02-20T11:39:59;21.30;65.50
10247;DHT22;5168;47.854;7.944;2023-02-20T11:42:32;21.10;60.30
10247;DHT22;5168;47.854;7.944;2023-02-20T11:45:22;21.20;58.80
10247;DHT22;5168;47.854;7.944;2023-02-20T11:50:45;21.70;59.20
10247;DHT22;5168;47.854;7.944;2023-02-20T11:53:22;22.70;57.20
10247;DHT22;5168;47.854;7.944;2023-02-20T11:56:04;22.00;56.70
10247;DHT22;5168;47.854;7.944;2023-02-20T11:58:30;22.10;55.30
10247;DHT22;5168;47.854;7.944;2023-02-20T12:00:56;22.90;56.00
10247;DHT22;5168;47.854;7.944;2023-02-20T12:03:23;22.30;56.80
10247;DHT22;5168;47.854;7.944;2023-02-20T12:05:50;22.60;55.60
10247;DHT22;5168;47.854;7.944;2023-02-20T12:11:23;22.80;56.80
10247;DHT22;5168;47.854;7.944;2023-02-20T12:13:51;22.50;54.10
10247;DHT22;5168;47.854;7.944;2023-02-20T12:19:15;22.70;56.50
10247;DHT22;5168;47.854;7.944;2023-02-20T12:22:03;22.00;54.60
10247;DHT22;5168;47.854;7.944;2023-02-20T12:24:51;23.00;54.90
10247;DHT22;5168;47.854;7.944;2023-02-20T12:30:26;22.20;54.50
10247;DHT22;5168;47.854;7.944;2023-02-20T12:36:07;22.20;53.90
10247;DHT22;5168;47.854;7.944;2023-02-20T12:38:47;22.80;55.20
10247;DHT22;5168;47.854;7.944;2023-02-20T12:46:51;22.70;52.60
10247;DHT22;5168;47.854;7.944;2023-02-20T12:58:14;23.00;50.00
10247;DHT22;5168;47.854;7.944;2023-02-20T13:00:47;23.30;53.60
10247;DHT22;5168;47.854;7.944;2023-02-20T13:05:56;23.40;46.00
10247;DHT22;5168;47.854;7.944;2023-02-20T13:08:26;23.90;46.80
10247;DHT22;5168;47.854;7.944;2023-02-20T13:10:59;23.00;49.10
10247;DHT22;5168;47.854;7.944;2023-02-20T13:16:20;23.60;50.50
10247;DHT22;5168;47.854;7.944;2023-02-20T13:19:04;23.30;48.70
10247;DHT22;5168;47.854;7.944;2023-02-20T13:21:31;23.00;49.50
10247;DHT22;5168;47.854;7.944;2023-02-20T13:24:27;23.00;44.00
10247;DHT22;5168;47.854;7.944;2023-02-20T13:26:58;22.90;43.80
10247;DHT22;5168;47.854;7.944;2023-02-20T13:31:58;22.30;39.00
10247;DHT22;5168;47.854;7.944;2023-02-20T13:34:37;22.00;41.20
10247;DHT22;5168;47.854;7.944;2023-02-20T13:37:04;22.20;42.60
10247;DHT22;5168;47.854;7.944;2023-02-20T13:42:31;22.60;39.30
10247;DHT22;5168;47.854;7.944;2023-02-20T13:44:57;22.70;42.10
10247;DHT22;5168;47.854;7.944;2023-02-20T13:49:55;22.80;43.50
10247;DHT22;5168;47.854;7.944;2023-02-20T13:52:43;22.80;41.90
10247;DHT22;5168;47.854;7.944;2023-02-20T13:57:44;22.50;40.50
10247;DHT22;5168;47.854;7.944;2023-02-20T14:00:32;22.70;40.30
10247;DHT22;5168;47.854;7.944;2023-02-20T14:03:00;21.70;39.40
10247;DHT22;5168;47.854;7.944;2023-02-20T14:05:34;21.70;39.50
10247;DHT22;5168;47.854;7.944;2023-02-20T14:10:34;22.10;37.80
10247;DHT22;5168;47.854;7.944;2023-02-20T14:13:14;22.20;32.70
10247;DHT22;5168;47.854;7.944;2023-02-20T14:15:50;22.30;31.10
10247;DHT22;5168;47.854;7.944;2023-02-20T14:18:17;22.00;33.50
10247;DHT22;5168;47.854;7.944;2023-02-20T14:20:44;22.30;31.70
10247;DHT22;5168;47.854;7.944;2023-02-20T14:23:33;22.20;29.90
10247;DHT22;5168;47.854;7.944;2023-02-20T14:26:05;22.20;30.40
10247;DHT22;5168;47.854;7.944;2023-02-20T14:28:45;21.80;29.40
10247;DHT22;5168;47.854;7.944;2023-02-20T14:33:57;21.20;31.50
10247;DHT22;5168;47.854;7.944;2023-02-20T14:37:24;20.10;32.90
10247;DHT22;5168;47.854;7.944;2023-02-20T14:39:42;19.90;33.60
10247;DHT22;5168;47.854;7.944;2023-02-20T14:42:20;19.80;33.00
10247;DHT22;5168;47.854;7.944;2023-02-20T14:44:52;18.80;34.20
10247;DHT22;5168;47.854;7.944;2023-02-20T14:47:19;19.00;36.40
10247;DHT22;5168;47.854;7.944;2023-02-20T14:52:22;17.90;35.80
10247;DHT22;5168;47.854;7.944;2023-02-20T14:55:03;17.70;40.70
10247;DHT22;5168;47.854;7.944;2023-02-20T14:57:29;17.40;41.10
10247;DHT22;5168;47.854;7.944;2023-02-20T15:02:35;16.40;41.90
10247;DHT22;5168;47.854;7.944;2023-02-20T15:05:07;16.30;42.20
10247;DHT22;5168;47.854;7.944;2023-02-20T15:07:34;15.90;41.90
10247;DHT22;5168;47.854;7.944;2023-02-20T15:10:03;15.50;42.60
10247;DHT22;5168;47.854;7.944;2023-02-20T15:12:38;15.50;40.70
10247;DHT22;5168;47.854;7.944;2023-02-20T15:15:05;15.50;45.60
10247;DHT22;5168;47.854;7.944;2023-02-20T15:17:34;15.00;46.00
10247;DHT22;5168;47.854;7.944;2023-02-20T15:20:00;14.90;46.00
10247;DHT22;5168;47.854;7.944;2023-02-20T15:22:39;15.00;46.90
10247;DHT22;5168;47.854;7.944;2023-02-20T15:25:19;14.70;48.10
10247;DHT22;5168;47.854;7.944;2023-02-20T15:28:26;14.80;49.00
10247;DHT22;5168;47.854;7.944;2023-02-20T15:31:06;14.10;49.20
10247;DHT22;5168;47.854;7.944;2023-02-20T15:33:42;14.10;49.80
10247;DHT22;5168;47.854;7.944;2023-02-20T15:36:12;14.00;46.80
10247;DHT22;5168;47.854;7.944;2023-02-20T15:38:38;13.40;49.70
10247;DHT22;5168;47.854;7.944;2023-02-20T15:41:05;13.70;49.50
10247;DHT22;5168;47.854;7.944;2023-02-20T15:43:31;13.90;49.40
10247;DHT22;5168;47.854;7.944;2023-02-20T15:45:56;13.90;49.30
10247;DHT22;5168;47.854;7.944;2023-02-20T15:48:22;13.40;47.40
10247;DHT22;5168;47.854;7.944;2023-02-20T15:50:49;13.10;49.00
10247;DHT22;5168;47.854;7.944;2023-02-20T15:53:19;13.20;52.10
10247;DHT22;5168;47.854;7.944;2023-02-20T15:55:45;13.40;52.10
10247;DHT22;5168;47.854;7.944;2023-02-20T15:58:22;13.10;52.30
10247;DHT22;5168;47.854;7.944;2023-02-20T16:00:47;12.70;54.00
10247;DHT22;5168;47.854;7.944;2023-02-20T16:03:15;13.20;53.90
10247;DHT22;5168;47.854;7.944;2023-02-20T16:05:41;13.00;55.60
10247;DHT22;5168;47.854;7.944;2023-02-20T16:10:32;12.30;57.40
10247;DHT22;5168;47.854;7.944;2023-02-20T16:12:59;12.70;58.50
10247;DHT22;5168;47.854;7.944;2023-02-20T16:15:25;11.60;53.70
10247;DHT22;5168;47.854;7.944;2023-02-20T16:20:20;12.30;55.10
10247;DHT22;5168;47.854;7.944;2023-02-20T16:22:46;11.60;59.10
10247;DHT22;5168;47.854;7.944;2023-02-20T16:25:15;11.80;56.80
10247;DHT22;5168;47.854;7.944;2023-02-20T16:27:41;11.80;60.80
10247;DHT22;5168;47.854;7.944;2023-02-20T16:30:17;11.70;64.30
10247;DHT22;5168;47.854;7.944;2023-02-20T16:32:43;11.30;65.20
10247;DHT22;5168;47.854;7.944;2023-02-20T16:35:12;11.40;66.20
10247;DHT22;5168;47.854;7.944;2023-02-20T16:40:05;10.60;61.30
10247;DHT22;5168;47.854;7.944;2023-02-20T16:42:35;10.50;66.30
10247;DHT22;5168;47.854;7.944;2023-02-20T16:45:14;10.80;63.20
10247;DHT22;5168;47.854;7.944;2023-02-20T16:50:11;10.00;61.10
10247;DHT22;5168;47.854;7.944;2023-02-20T16:52:39;9.80;64.80
10247;DHT22;5168;47.854;7.944;2023-02-20T16:55:48;9.90;61.50
10247;DHT22;5168;47.854;7.944;2023-02-20T17:00:24;9.70;61.80
10247;DHT22;5168;47.854;7.944;2023-02-20T17:05:19;9.00;67.70
10247;DHT22;5168;47.854;7.944;2023-02-20T17:07:45;9.50;68.80
10247;DHT22;5168;47.854;7.944;2023-02-20T17:10:11;8.70;68.10
10247;DHT22;5168;47.854;7.944;2023-02-20T17:12:36;9.40;66.70
10247;DHT22;5168;47.854;7.944;2023-02-20T17:15:05;9.20;64.00
10247;DHT22;5168;47.854;7.944;2023-02-20T17:17:31;8.80;69.70
10247;DHT22;5168;47.854;7.944;2023-02-20T17:20:00;8.50;69.40
10247;DHT22;5168;47.854;7.944;2023-02-20T17:22:26;9.20;70.10
10247;DHT22;5168;47.854;7.944;2023-02-20T17:24:52;9.10;68.80
10247;DHT22;5168;47.854;7.944;2023-02-20T17:29:45;8.80;70.70
10247;DHT22;5168;47.854;7.944;2023-02-20T17:32:11;8.90;71.50
10247;DHT22;5168;47.854;7.944;2023-02-20T17:34:37;9.10;67.80
10247;DHT22;5168;47.854;7.944;2023-02-20T17:41:56;8.10;70.90
10247;DHT22;5168;47.854;7.944;2023-02-20T17:44:23;8.20;65.50
10247;DHT22;5168;47.854;7.944;2023-02-20T17:46:51;8.00;66.40
10247;DHT22;5168;47.854;7.944;2023-02-20T17:49:17;8.10;70.90
10247;DHT22;5168;47.854;7.944;2023-02-20T17:51:43;8.00;69.90
10247;DHT22;5168;47.854;7.944;2023-02-20T17:54:10;8.00;68.60
10247;DHT22;5168;47.854;7.944;2023-02-20T17:56:43;7.80;63.00
10247;DHT22;5168;47.854;7.944;2023-02-20T17:59:09;8.00;68.30
10247;DHT22;5168;47.854;7.944;2023-02-20T18:01:35;7.80;69.20
10247;DHT22;5168;47.854;7.944;2023-02-20T18:06:29;7.80;67.10
10247;DHT22;5168;47.854;7.944;2023-02-20T18:16:13;7.50;64.80
10247;DHT22;5168;47.854;7.944;2023-02-20T18:21:04;7.10;68.90
10247;DHT22;5168;47.854;7.944;2023-02-20T18:23:30;7.70;65.90
10247;DHT22;5168;47.854;7.944;2023-02-20T18:25:55;6.80;67.20
10247;DHT22;5168;47.854;7.944;2023-02-20T18:33:13;7.20;68.30
10247;DHT22;5168;47.854;7.944;2023-02-20T18:35:39;7.10;68.90
10247;DHT22;5168;47.854;7.944;2023-02-20T18:38:04;7.00;68.70
10247;DHT22;5168;47.854;7.944;2023-02-20T18:42:56;7.00;65.30
10247;DHT22;5168;47.854;7.944;2023-02-20T18:47:52;7.20;63.60
10247;DHT22;5168;47.854;7.944;2023-02-20T18:50:18;7.20;69.10
10247;DHT22;5168;47.854;7.944;2023-02-20T18:52:47;6.50;68.60
10247;DHT22;5168;47.854;7.944;2023-02-20T18:55:14;7.20;64.70
10247;DHT22;5168;47.854;7.944;2023-02-20T18:57:43;7.40;70.30
10247;DHT22;5168;47.854;7.944;2023-02-20T19:00:10;7.10;65.70
10247;DHT22;5168;47.854;7.944;2023-02-20T19:02:36;7.20;68.70
10247;DHT22;5168;47.854;7.944;2023-02-20T19:05:02;6.50;71.70
10247;DHT22;5168;47.854;7.944;2023-02-20T19:07:27;7.10;69.20
10247;DHT22;5168;47.854;7.944;2023-02-20T19:12:20;7.00;75.50
10247;DHT22;5168;47.854;7.944;2023-02-20T19:14:46;7.40;75.70
10247;DHT22;5168;47.854;7.944;2023-02-20T19:19:38;7.30;77.00
10247;DHT22;5168;47.854;7.944;2023-02-20T19:24:39;7.20;74.60
10247;DHT22;5168;47.854;7.944;2023-02-20T19:27:04;7.30;79.90
10247;DHT22;5168;47.854;7.944;2023-02-20T19:39:16;6.50;83.00
10247;DHT22;5168;47.854;7.944;2023-02-20T19:41:41;6.40;84.10
10247;DHT22;5168;47.854;7.944;2023-02-20T19:44:12;6.40;82.30
10247;DHT22;5168;47.854;7.944;2023-02-20T19:46:37;6.20;86.40
10247;DHT22;5168;47.854;7.944;2023-02-20T19:51:34;6.30;87.30
10247;DHT22;5168;47.854;7.944;2023-02-20T19:58:51;6.00;88.80
10247;DHT22;5168;47.854;7.944;2023-02-20T20:01:18;5.70;89.10
10247;DHT22;5168;47.854;7.944;2023-02-20T20:03:45;5.90;83.70
10247;DHT22;5168;47.854;7.944;2023-02-20T20:06:12;6.10;90.00
10247;DHT22;5168;47.854;7.944;2023-02-20T20:08:38;5.80;88.10
10247;DHT22;5168;47.854;7.944;2023-02-20T20:20:48;6.10;88.40
10247;DHT22;5168;47.854;7.944;2023-02-20T20:23:14;6.00;87.00
10247;DHT22;5168;47.854;7.944;2023-02-20T20:25:40;6.10;85.80
10247;DHT22;5168;47.854;7.944;2023-02-20T20:28:06;5.90;85.70
10247;DHT22;5168;47.854;7.944;2023-02-20T20:30:34;5.90;81.50
10247;DHT22;5168;47.854;7.944;2023-02-20T20:35:28;6.00;77.20
10247;DHT22;5168;47.854;7.944;2023-02-20T20:40:21;6.20;81.90
10247;DHT22;5168;47.854;7.944;2023-02-20T20:42:47;6.40;81.80
10247;DHT22;5168;47.854;7.944;2023-02-20T20:45:14;5.50;81.60
10247;DHT22;5168;47.854;7.944;2023-02-20T20:50:07;5.60;80.70
10247;DHT22;5168;47.854;7.944;2023-02-20T20:52:33;5.40;77.10
10247;DHT22;5168;47.854;7.944;2023-02-20T20:54:59;5.40;78.20
10247;DHT22;5168;47.854;7.944;2023-02-20T20:57:27;5.40;78.30
10247;DHT22;5168;47.854;7.944;2023-02-20T20:59:53;5.60;78.40
10247;DHT22;5168;47.854;7.944;2023-02-20T21:02:20;6.10;77.70
10247;DHT22;5168;47.854;7.944;2023-02-20T21:04:47;5.30;76.10
10247;DHT22;5168;47.854;7.944;2023-02-20T21:07:14;5.40;74.40
10247;DHT22;5168;47.854;7.944;2023-02-20T21:09:40;5.50;72.60
10247;DHT22;5168;47.854;7.944;2023-02-20T21:12:08;5.80;65.60
10247;DHT22;5168;47.854;7.944;2023-02-20T21:14:34;5.60;68.80
10247;DHT22;5168;47.854;7.944;2023-02-20T21:17:00;5.80;65.30
10247;DHT22;5168;47.854;7.944;2023-02-20T21:29:09;6.20;63.80
10247;DHT22;5168;47.854;7.944;2023-02-20T21:31:35;6.00;60.60
10247;DHT22;5168;47.854;7.944;2023-02-20T21:34:02;6.10;55.80
10247;DHT22;5168;47.854;7.944;2023-02-20T21:36:28;5.90;53.50
10247;DHT22;5168;47.854;7.944;2023-02-20T21:41:22;5.90;54.20
10247;DHT22;5168;47.854;7.944;2023-02-20T21:44:21;5.80;54.50